Rocky Face, Georgia
Current Conditions -  °F | °C
As of 11:35 PM on Sunday 25 Jan 2015 (Local Time) from KDNN Reporting Station
Drizzle Drizzle  
Wind Chill: 46°   Ceiling: 6000
Heat Index: 46°   Visibility: 10mi
Dew Point: 43°   Wind: 0mph
Humidity: 87%   Direction: NA
Pressure: 29.72"   Gusts: NA
Location:  34.8°N, 85.03°W
Report Text: KDNN 260435Z AUTO 00000KT 10SM -DZ SCT044 BKN060 OVC080 08/06 A2972 RMK AO2
Loading
Personal Weather Stations






























Interactive Weather Map New forecast layout! Learn more

10-Day Weather Forecast

Advertisements
Track Severe Weather on mobile